Home   Weather   Afghanistan   Herat   Past weeks
Flag for Afghanistan

Past Weather in Herat, Afghanistan — Yesterday and Last 2 Weeks

Currently: 68 °F. Sunny. (Weather station: Mashhad Airport, Afghanistan). See more current weather

Past Weather in Herat — Graph

°F

Herat Temperature Yesterday

Maximum temperature yesterday: 88 °F (at 3:00 pm)
Minimum temperature yesterday: 54 °F (at 5:30 am)
Average temperature yesterday: 74 °F

High & Low Weather Summary for the Past Weeks

 TemperatureHumidityPressure
High88 °F (May 7, 2:00 pm)100% (May 3, 2:30 am)30.21 "Hg (May 3, 2:30 am)
Low50 °F (May 15, 4:30 am)24% (May 16, 3:30 pm)29.74 "Hg (May 2, 4:00 pm)
Average66 °F66%29.98 "Hg
* Reported May 2 5:30 am — May 17 5:30 am, Herat. Weather by CustomWeather, © 2022

Note: Actual official high and low records may vary slightly from our data, if they occured in-between our weather recording intervals... More about our weather records

Herat Weather History for the Previous 24 Hours

Scroll right to see more
 ConditionsComfort  
Time TempWeatherWind HumidityBarometerVisibility
5:30 am
Tue, May 17
64 °FClear.9 mph46%29.86 "Hg10 mi
5:00 am64 °FClear.5 mph49%29.83 "Hg10 mi
4:30 am64 °FClear.5 mph49%29.83 "Hg10 mi
4:00 am66 °FClear.5 mph43%29.83 "Hg10 mi
3:30 am66 °FClear.7 mph43%29.83 "Hg10 mi
3:00 am64 °FClear.7 mph49%29.83 "Hg10 mi
2:30 am64 °FClear.5 mph56%29.83 "Hg10 mi
2:00 am66 °FClear.7 mph46%29.83 "Hg10 mi
1:30 am68 °FClear.5 mph43%29.83 "Hg10 mi
1:00 am68 °FClear.7 mph43%29.86 "Hg10 mi
12:00 am70 °FClear.5 mph40%29.86 "Hg10 mi
11:30 pm
Mon, May 16
73 °FClear.5 mph31%29.89 "Hg10 mi
11:00 pm75 °FClear.7 mph31%29.89 "Hg10 mi
10:30 pm75 °FClear.7 mph31%29.89 "Hg10 mi
10:00 pm75 °FClear.7 mph34%29.89 "Hg10 mi
9:30 pm77 °FClear.7 mph34%29.89 "Hg10 mi
9:00 pm79 °FClear.7 mph34%29.86 "Hg10 mi
8:30 pm79 °FClear.5 mph37%29.86 "Hg10 mi
8:00 pm81 °FSunny.5 mph34%29.86 "Hg10 mi
7:30 pm82 °FSunny.5 mph32%29.86 "Hg10 mi
7:00 pm86 °FSunny.5 mph29%29.86 "Hg10 mi
6:30 pm88 °FSunny.5 mph27%29.86 "Hg10 mi
6:00 pm88 °FSunny.7 mph27%29.86 "Hg10 mi
5:30 pm88 °FSunny.12 mph27%29.86 "Hg10 mi
5:00 pm88 °FSunny.7 mph27%29.89 "Hg10 mi
4:30 pm88 °FSunny.7 mph25%29.89 "Hg10 mi
4:00 pm88 °FSunny.9 mph25%29.89 "Hg10 mi
3:30 pm88 °FSunny.9 mph24%29.89 "Hg10 mi
3:00 pm88 °FSunny.7 mph25%29.92 "Hg10 mi
2:30 pm86 °FSunny.No wind27%29.92 "Hg10 mi
2:00 pm86 °FSunny.9 mph25%29.95 "Hg10 mi
1:30 pm84 °FSunny.5 mph31%29.95 "Hg10 mi
1:00 pm84 °FSunny.7 mph33%29.95 "Hg10 mi
12:30 pm82 °FSunny.7 mph32%29.98 "Hg10 mi
12:00 pm81 °FSunny.5 mph34%29.98 "Hg10 mi
11:30 am79 °FSunny.12 mph37%30.01 "Hg10 mi
10:30 am77 °FSunny.7 mph42%30.01 "Hg10 mi
10:00 am75 °FSunny.5 mph39%30.04 "Hg10 mi
9:30 am73 °FSunny.7 mph44%30.04 "Hg10 mi
9:00 am75 °FSunny.No wind44%30.04 "Hg10 mi
8:30 am72 °FSunny.No wind50%30.04 "Hg10 mi
8:00 am68 °FSunny.5 mph56%30.04 "Hg10 mi
7:30 am70 °FSunny.No wind50%30.04 "Hg10 mi
7:00 am66 °FSunny.No wind60%30.01 "Hg10 mi
6:30 am59 °FSunny.No wind68%30.01 "Hg10 mi
6:00 am55 °FSunny.5 mph72%30.01 "Hg10 mi
Weather by CustomWeather, © 2022

See weather overview